Latest Coastal Weather Observations for Red Rocks Point

IDW60701

Issued at 3:35 am WST Sunday 26 October 2014 (issued every 10 minutes, with the page automatically refreshed every 10 minutes)

About coastal observations | Map of coastal stations | Coastal observations for WA | Marine services | Other Formats
Station Details ID: 011053 Name: RED ROCKS POINT Lat: -32.20 Lon: 127.53 Height: 3.1 m
Data from the previous 72 hours. | See also: Recent months for locations in Western Australia
Date/Time
WST
Temp

°C
Wind Pressure Rain
since 9am
mm
Weather Cloud Vis
km
Sea
Height
m
Swell
Dir
 
Speed
knots
Gust
knots
hPa Trend Height
m
Period
s
Dir
26/03:30am 17.4 SW 13 18 1011.3 - 0.0 - - - - - - -
26/03:00am 17.4 SW 13 18 1010.9 - 0.0 - - - - - - -
26/02:30am 17.5 SW 13 22 1010.7 - 0.0 - - - - - - -
26/02:00am 17.6 SSW 15 21 1010.5 - 0.0 - - - - - - -
26/01:30am 17.7 SW 13 18 1010.4 - 0.0 - - - - - - -
26/01:00am 17.7 SW 13 18 1010.4 - 0.0 - - - - - - -
26/12:30am 17.7 SW 10 12 1010.1 - 0.0 - - - - - - -
26/12:00am 17.8 S 8 9 1009.9 - 0.0 - - - - - - -
 
Date/Time
WST
Temp

°C
Wind Pressure Rain
since 9am
mm
Weather Cloud Vis
km
Sea
Height
m
Swell
Dir
 
Speed
knots
Gust
knots
hPa Trend Height
m
Period
s
Dir
25/11:30pm 18.3 S 9 11 1009.8 - 0.0 - - - - - - -
25/11:00pm 18.4 S 9 11 1010.0 - 0.0 - - - - - - -
25/10:30pm 18.5 S 10 12 1010.0 - 0.0 - - - - - - -
25/10:00pm 18.7 SE 8 10 1009.6 - 0.0 - - - - - - -
25/09:30pm 19.1 E 14 17 1009.2 - 0.0 - - - - - - -
25/09:00pm 19.2 E 16 19 1009.3 - 0.0 - - - - - - -
25/08:30pm 19.2 E 16 20 1009.6 - 0.0 - - - - - - -
25/08:00pm 19.1 E 13 16 1010.0 - 0.0 - - - - - - -
25/07:30pm 18.8 ESE 12 14 1009.9 - 0.0 - - - - - - -
25/07:00pm 18.8 ESE 13 15 1009.8 - 0.0 - - - - - - -
25/06:30pm 18.8 E 15 19 1009.3 - 0.0 - - - - - - -
25/06:00pm 18.8 E 16 18 1009.2 - 0.0 - - - - - - -
25/05:30pm 19.0 ESE 15 18 1009.0 - 0.0 - - - - - - -
25/05:00pm 19.4 E 16 19 1008.8 - 0.0 - - - - - - -
25/04:30pm 19.7 E 17 21 1008.7 - 0.0 - - - - - - -
25/04:00pm 19.5 E 18 21 1008.6 - 0.0 - - - - - - -
25/03:30pm 19.6 E 18 21 1008.9 - 0.0 - - - - - - -
25/03:00pm 19.9 E 17 21 1009.1 - 0.0 - - - - - - -
25/02:30pm 20.2 E 19 23 1009.5 - 0.0 - - - - - - -
25/02:00pm 20.2 E 19 22 1009.9 - 0.0 - - - - - - -
25/01:30pm 20.3 E 19 22 1010.5 - 0.0 - - - - - - -
25/01:00pm 20.0 E 17 20 1011.4 - 0.0 - - - - - - -
25/12:30pm 20.6 E 18 21 1012.0 - 0.0 - - - - - - -
25/12:00pm 20.6 E 17 20 1012.6 - 0.0 - - - - - - -
25/11:30am 20.7 E 18 21 1012.9 - 0.0 - - - - - - -
25/11:00am 19.6 E 18 22 1013.4 - 0.0 - - - - - - -
25/10:30am 20.4 E 18 21 1014.1 - 0.0 - - - - - - -
25/10:00am 20.1 E 17 20 1014.9 - 0.0 - - - - - - -
25/09:30am 20.6 E 16 19 1015.5 - 0.0 - - - - - - -
25/09:00am 20.2 E 16 18 1016.0 - 0.0 - - - - - - -
25/08:30am 19.7 E 14 16 1016.1 - 0.0 - - - - - - -
25/08:00am 20.1 E 10 13 1016.7 - 0.0 - - - - - - -
25/07:30am 19.0 ENE 12 14 1016.9 - 0.0 - - - - - - -
25/07:00am 17.8 ENE 13 15 1016.9 - 0.0 - - - - - - -
25/06:30am 17.1 NE 11 15 1017.3 - 0.0 - - - - - - -
25/06:00am 16.7 ENE 10 13 1016.9 - 0.0 - - - - - - -
25/05:30am 16.2 NE 10 15 1016.9 - 0.0 - - - - - - -
25/05:00am 16.4 NE 10 18 1017.0 - 0.0 - - - - - - -
25/04:30am 16.6 E 13 16 1016.8 - 0.0 - - - - - - -
25/04:00am 16.8 ENE 14 17 1016.8 - 0.0 - - - - - - -
25/03:30am 16.6 E 11 15 1017.2 - 0.0 - - - - - - -
25/03:00am 16.4 ESE 11 15 1016.1 - 0.0 - - - - - - -
25/02:30am 16.9 ENE 8 11 1016.5 - 0.0 - - - - - - -
25/02:00am 16.4 NE 7 9 1016.9 - 0.0 - - - - - - -
25/01:30am 16.8 E 11 13 1017.1 - 0.0 - - - - - - -
25/01:00am 16.8 ENE 12 15 1017.5 - 0.0 - - - - - - -
25/12:30am 16.7 E 13 16 1017.5 - 0.0 - - - - - - -
25/12:00am 16.9 E 13 16 1017.7 - 0.0 - - - - - - -
 
Date/Time
WST
Temp

°C
Wind Pressure Rain
since 9am
mm
Weather Cloud Vis
km
Sea
Height
m
Swell
Dir
 
Speed
knots
Gust
knots
hPa Trend Height
m
Period
s
Dir
24/11:30pm 16.9 E 11 15 1018.0 - 0.0 - - - - - - -
24/11:00pm 17.3 E 13 16 1018.2 - 0.0 - - - - - - -
24/10:30pm 17.3 E 12 14 1018.5 - 0.0 - - - - - - -
24/10:00pm 17.4 ESE 11 14 1018.6 - 0.0 - - - - - - -
24/09:30pm 17.5 ESE 11 13 1018.5 - 0.0 - - - - - - -
24/09:00pm 17.6 ESE 11 13 1018.7 - 0.0 - - - - - - -
24/08:30pm 17.5 SE 11 13 1018.9 - 0.0 - - - - - - -
24/08:00pm 17.6 SSE 12 13 1019.0 - 0.0 - - - - - - -
24/07:30pm 17.5 SSE 13 16 1018.5 - 0.0 - - - - - - -
24/07:00pm 17.6 S 12 15 1018.2 - 0.0 - - - - - - -
24/06:30pm 17.5 S 13 16 1017.7 - 0.0 - - - - - - -
24/06:00pm 17.5 S 12 14 1017.5 - 0.0 - - - - - - -
24/05:30pm 17.6 S 12 15 1017.5 - 0.0 - - - - - - -
24/05:00pm 18.1 S 12 16 1017.4 - 0.0 - - - - - - -
24/04:30pm 18.8 S 12 15 1017.7 - 0.0 - - - - - - -
24/04:00pm 19.1 S 11 13 1017.4 - 0.0 - - - - - - -
24/03:30pm 19.5 S 10 12 1017.4 - 0.0 - - - - - - -
24/03:00pm 20.3 S 10 11 1017.4 - 0.0 - - - - - - -
24/02:30pm 20.5 S 10 12 1017.5 - 0.0 - - - - - - -
24/02:00pm 20.9 S 10 13 1017.3 - 0.0 - - - - - - -
24/01:30pm 21.7 SSW 11 15 1017.4 - 0.0 - - - - - - -
24/01:00pm 20.8 SSW 12 17 1017.4 - 0.0 - - - - - - -
24/12:30pm 22.2 SSW 13 16 1017.4 - 0.0 - - - - - - -
24/12:00pm 22.6 SSW 12 16 1017.4 - 0.0 - - - - - - -
24/11:30am 22.2 SSW 13 16 1017.4 - 0.0 - - - - - - -
24/11:00am 22.2 SSW 11 15 1017.6 - 0.0 - - - - - - -
24/10:30am 21.8 SSW 12 16 1017.8 - 0.0 - - - - - - -
24/10:00am 21.8 SSW 12 16 1017.9 - 0.0 - - - - - - -
24/09:30am 21.6 SW 11 16 1018.1 - 0.0 - - - - - - -
24/09:00am 22.2 SW 12 17 1018.1 - 0.0 - - - - - - -
24/08:30am 21.9 SW 11 15 1017.8 - 0.0 - - - - - - -
24/08:00am 21.3 SW 11 15 1017.6 - 0.0 - - - - - - -
24/07:30am 20.9 SW 11 15 1017.3 - 0.0 - - - - - - -
24/07:00am 20.3 SW 9 13 1017.1 - 0.0 - - - - - - -
24/06:30am 18.8 WSW 7 10 1017.0 - 0.0 - - - - - - -
24/06:00am 16.1 W 6 8 1016.7 - 0.0 - - - - - - -
24/05:30am 13.0 WNW 9 11 1016.3 - 0.0 - - - - - - -
24/05:00am 12.2 WNW 10 11 1015.9 - 0.0 - - - - - - -
24/04:30am 12.7 WNW 10 11 1015.3 - 0.0 - - - - - - -
24/04:00am 12.5 WNW 9 10 1015.0 - 0.0 - - - - - - -
24/03:30am 12.9 WNW 9 10 1014.7 - 0.0 - - - - - - -
24/03:00am 13.2 WNW 6 7 1014.4 - 0.0 - - - - - - -
24/02:30am 13.4 WNW 7 8 1014.5 - 0.0 - - - - - - -
24/02:00am 13.9 WNW 5 6 1014.4 - 0.0 - - - - - - -
24/01:30am 14.0 WSW 5 6 1014.1 - 0.0 - - - - - - -
24/01:00am 15.6 SW 5 6 1014.1 - 0.0 - - - - - - -
24/12:30am 15.6 S 5 6 1014.0 - 0.0 - - - - - - -
24/12:00am 16.5 S 5 6 1014.5 - 0.0 - - - - - - -
 
Date/Time
WST
Temp

°C
Wind Pressure Rain
since 9am
mm
Weather Cloud Vis
km
Sea
Height
m
Swell
Dir
 
Speed
knots
Gust
knots
hPa Trend Height
m
Period
s
Dir
23/11:30pm 17.0 SSE 4 5 1014.7 - 0.0 - - - - - - -
23/11:00pm 18.0 S 6 8 1014.6 - 0.0 - - - - - - -
23/10:30pm 18.2 SSW 9 11 1014.7 - 0.0 - - - - - - -
23/10:00pm 18.4 SSW 8 12 1014.6 - 0.0 - - - - - - -
23/09:30pm 18.4 SSW 7 10 1014.4 - 0.0 - - - - - - -
23/09:00pm 18.6 SSW 8 11 1013.9 - 0.0 - - - - - - -
23/08:30pm 18.7 SSW 8 10 1013.8 - 0.0 - - - - - - -
23/08:00pm 18.6 S 7 9 1013.4 - 0.0 - - - - - - -
23/07:30pm 18.9 S 6 7 1012.7 - 0.0 - - - - - - -
23/07:00pm 18.9 SE 3 8 1012.5 - 0.0 - - - - - - -
23/06:30pm 18.8 ESE 5 7 1011.8 - 0.0 - - - - - - -
23/06:00pm 18.7 S 15 19 1010.6 - 0.0 - - - - - - -
23/05:30pm 19.0 S 11 16 1010.4 - 0.0 - - - - - - -
23/05:00pm 22.9 WSW 10 18 1009.6 - 0.0 - - - - - - -
23/04:56pm 24.4 W 13 18 1009.5 - 0.0 - - - - - - -
23/04:43pm 29.6 WSW 12 23 1008.6 - 0.0 - - - - - - -
23/04:30pm 34.9 NNW 11 20 1007.6 - 0.0 - - - - - - -
23/04:00pm 35.1 NNW 14 23 1007.0 - 0.0 - - - - - - -
23/03:30pm 36.7 NNW 11 19 1007.3 - 0.0 - - - - - - -
23/03:00pm 35.9 NW 9 16 1007.6 - 0.0 - - - - - - -
23/02:30pm 34.9 NNW 11 17 1008.0 - 0.0 - - - - - - -
23/02:00pm 32.8 N 8 13 1008.4 - 0.0 - - - - - - -
23/01:30pm 32.4 N 11 20 1008.8 - 0.0 - - - - - - -
23/01:00pm 30.1 N 13 18 1009.6 - 0.0 - - - - - - -
23/12:30pm 28.7 NNE 13 21 1010.5 - 0.0 - - - - - - -
23/12:00pm 27.6 N 13 21 1011.0 - 0.0 - - - - - - -
23/11:30am 25.7 N 12 17 1011.7 - 0.0 - - - - - - -
23/11:00am 25.8 NNE 12 17 1011.9 - 0.0 - - - - - - -
23/10:30am 23.6 NNE 11 16 1012.6 - 0.0 - - - - - - -
23/10:00am 22.4 NE 14 20 1013.5 - 0.0 - - - - - - -
23/09:30am 21.4 NE 14 19 1014.5 - 0.0 - - - - - - -
23/08:30am 19.3 NE 15 18 1015.1 - 0.0 - - - - - - -
23/08:00am 17.6 NE 12 15 1015.5 - 0.0 - - - - - - -
23/07:30am 16.8 NE 8 11 1016.3 - 0.0 - - - - - - -
23/07:00am 16.1 NE 1 7 1016.4 - 0.0 - - - - - - -
23/06:30am 15.8 NE 12 15 1015.4 - 0.0 - - - - - - -
23/06:00am 15.7 NE 12 15 1015.7 - 0.0 - - - - - - -
23/05:30am 15.6 NE 7 10 1015.9 - 0.0 - - - - - - -
23/05:00am 15.6 NE 13 17 1015.5 - 0.0 - - - - - - -
23/04:30am 15.6 NE 11 15 1015.2 - 0.0 - - - - - - -
23/04:00am 15.6 NE 14 19 1015.1 - 0.0 - - - - - - -

Other Formats:

Comma delimited format used in spreadsheet applications
http://www.bom.gov.au/fwo/IDW60701/IDW60701.94644.axf

JavaScript Object Notation format (JSON) in row-major order
http://www.bom.gov.au/fwo/IDW60701/IDW60701.94644.json